Station: EBLG - 26/04/2017 11:20Z (il y a 22 minutes)
EBLG 261120Z 31006KT 270V360 9999 SCT030 09/M01 Q1012 NOSIG
Vent du 310º - 6 kt (vent de direction variable de 270º à 360º)
Visibilité > 10 km
Ciel 50% couvert à 3000 pieds
Température: +09ºC - Point de rosée: -01ºC - QNH: 1012 hPa
Pas de changement significatif prévu dans les 2 heures qui suivent l'observation